createdAt,value
2018-06-23T00:04:35.068Z,9.10
2018-06-23T00:07:03.249Z,9.00
2018-06-23T00:09:31.415Z,9.00
2018-06-23T00:14:27.556Z,9.10
2018-06-23T00:19:23.652Z,9.00
2018-06-23T00:21:51.839Z,9.00
2018-06-23T00:24:20.045Z,9.00
2018-06-23T00:29:16.152Z,9.00
2018-06-23T00:31:44.352Z,9.00
2018-06-23T00:36:40.452Z,9.00
2018-06-23T00:39:09.221Z,9.00
2018-06-23T00:41:37.472Z,9.00
2018-06-23T00:44:06.069Z,9.00
2018-06-23T00:46:34.241Z,9.00
2018-06-23T00:49:02.428Z,9.00
2018-06-23T00:51:30.631Z,9.00
2018-06-23T00:53:58.812Z,9.00
2018-06-23T00:56:26.967Z,9.10
2018-06-23T00:59:06.764Z,9.10
2018-06-23T01:01:34.980Z,9.10
2018-06-23T01:04:03.176Z,9.20
2018-06-23T01:06:31.358Z,9.20
2018-06-23T01:08:59.579Z,9.20
2018-06-23T01:11:27.743Z,9.20
2018-06-23T01:13:56.036Z,9.20
2018-06-23T01:16:24.227Z,9.30
2018-06-23T01:18:52.394Z,9.30
2018-06-23T01:21:20.564Z,9.40
2018-06-23T01:23:48.757Z,9.40
2018-06-23T01:26:16.955Z,9.40
2018-06-23T01:28:45.116Z,9.50
2018-06-23T01:31:13.288Z,9.60
2018-06-23T01:33:41.595Z,9.60
2018-06-23T01:36:09.776Z,9.60
2018-06-23T01:38:37.955Z,9.60
2018-06-23T01:41:06.131Z,9.70
2018-06-23T01:43:34.379Z,9.60
2018-06-23T01:48:30.488Z,9.60
2018-06-23T01:50:58.680Z,9.60
2018-06-23T01:53:26.848Z,9.60
2018-06-23T01:55:55.038Z,9.60
2018-06-23T01:58:23.208Z,9.60
2018-06-23T02:00:51.363Z,9.60
2018-06-23T02:03:19.580Z,9.60
2018-06-23T02:05:47.763Z,9.70
2018-06-23T02:08:15.928Z,9.70
2018-06-23T02:10:44.123Z,9.80
2018-06-23T02:13:12.291Z,9.80
2018-06-23T02:15:45.972Z,9.90
2018-06-23T02:18:19.672Z,10.00
2018-06-23T02:23:26.675Z,10.10
2018-06-23T02:26:00.207Z,10.20
2018-06-23T02:28:33.822Z,10.30
2018-06-23T02:31:07.613Z,10.40
2018-06-23T02:33:41.219Z,10.50
2018-06-23T02:36:09.417Z,10.50
2018-06-23T02:38:37.593Z,10.60
2018-06-23T02:41:05.796Z,10.60
2018-06-23T02:46:01.914Z,10.70
2018-06-23T02:48:30.934Z,10.70
2018-06-23T02:53:27.057Z,10.90
2018-06-23T02:55:55.228Z,10.90
2018-06-23T02:58:23.420Z,10.90
2018-06-23T03:00:51.740Z,11.00
2018-06-23T03:03:19.913Z,11.00
2018-06-23T03:05:48.091Z,11.10
2018-06-23T03:08:16.276Z,11.10
2018-06-23T03:10:44.473Z,11.20
2018-06-23T03:13:12.650Z,11.20
2018-06-23T03:15:40.836Z,11.30
2018-06-23T03:18:09.001Z,11.30
2018-06-23T03:20:37.221Z,11.40
2018-06-23T03:23:05.408Z,11.40
2018-06-23T03:25:33.583Z,11.50
2018-06-23T03:28:01.768Z,11.60
2018-06-23T03:30:30.196Z,11.70
2018-06-23T03:32:58.371Z,11.70
2018-06-23T03:35:26.555Z,11.80
2018-06-23T03:37:54.716Z,11.80
2018-06-23T03:40:22.911Z,11.90
2018-06-23T03:42:51.088Z,11.90
2018-06-23T03:45:19.382Z,12.00
2018-06-23T03:47:47.535Z,12.00
2018-06-23T03:50:15.719Z,12.00
2018-06-23T03:52:43.920Z,12.00
2018-06-23T03:55:12.108Z,12.00
2018-06-23T03:57:40.453Z,11.90
2018-06-23T04:02:36.551Z,11.90
2018-06-23T04:05:04.724Z,11.90
2018-06-23T04:07:32.904Z,11.90
2018-06-23T04:10:01.071Z,11.90
2018-06-23T04:12:29.252Z,11.80
2018-06-23T04:14:57.449Z,11.80
2018-06-23T04:17:25.592Z,11.80
2018-06-23T04:19:53.784Z,11.80
2018-06-23T04:22:21.946Z,11.70
2018-06-23T04:24:50.139Z,11.70
2018-06-23T04:27:18.388Z,11.70
2018-06-23T04:29:46.607Z,11.70
2018-06-23T04:32:16.783Z,11.70
2018-06-23T04:34:44.982Z,11.70
2018-06-23T04:37:13.171Z,11.70
2018-06-23T04:39:41.371Z,11.70
2018-06-23T04:42:09.659Z,11.80
2018-06-23T04:44:37.863Z,11.80
2018-06-23T04:47:06.141Z,11.80
2018-06-23T04:49:34.431Z,12.00
2018-06-23T04:52:02.606Z,12.10
2018-06-23T04:54:30.804Z,12.20
2018-06-23T04:56:58.997Z,12.30
2018-06-23T04:59:27.201Z,12.20
2018-06-23T05:01:55.336Z,12.20
2018-06-23T05:04:23.523Z,12.20
2018-06-23T05:06:51.693Z,12.20
2018-06-23T05:09:19.870Z,12.20
2018-06-23T05:11:48.039Z,12.10
2018-06-23T05:14:16.211Z,12.10
2018-06-23T05:16:44.415Z,12.20
2018-06-23T05:19:12.611Z,12.10
2018-06-23T05:21:40.793Z,12.10
2018-06-23T05:24:08.975Z,12.20
2018-06-23T05:26:37.160Z,12.20
2018-06-23T05:29:05.464Z,12.30
2018-06-23T05:31:33.725Z,12.30
2018-06-23T05:34:01.921Z,12.40
2018-06-23T05:38:58.070Z,12.50
2018-06-23T05:43:54.205Z,12.70
2018-06-23T05:48:50.375Z,13.10
2018-06-23T05:51:18.566Z,13.30
2018-06-23T05:53:46.760Z,13.60
2018-06-23T05:56:14.948Z,13.70
2018-06-23T05:58:43.127Z,13.90
2018-06-23T06:01:11.324Z,14.10
2018-06-23T06:04:43.287Z,14.40
2018-06-23T06:09:39.706Z,15.00
2018-06-23T06:12:07.878Z,15.30
2018-06-23T06:14:36.065Z,15.30
2018-06-23T06:17:25.255Z,15.80
2018-06-23T06:19:55.437Z,16.10
2018-06-23T06:22:25.016Z,16.50
2018-06-23T06:24:53.333Z,16.90
2018-06-23T06:27:21.535Z,17.20
2018-06-23T06:29:50.217Z,17.00
2018-06-23T06:34:46.341Z,16.70
2018-06-23T06:37:14.600Z,17.70
2018-06-23T06:39:43.340Z,19.10
2018-06-23T06:42:11.528Z,19.70
2018-06-23T06:44:39.785Z,19.60
2018-06-23T06:47:07.960Z,19.00
2018-06-23T06:49:36.176Z,18.30
2018-06-23T06:52:04.356Z,17.60
2018-06-23T06:54:32.552Z,16.90
2018-06-23T06:57:00.752Z,16.80
2018-06-23T06:59:28.908Z,16.70
2018-06-23T07:01:57.086Z,16.50
2018-06-23T07:04:25.272Z,16.50
2018-06-23T07:06:53.510Z,16.40
2018-06-23T07:09:21.683Z,16.40
2018-06-23T07:11:49.867Z,16.90
2018-06-23T07:14:18.100Z,17.50
2018-06-23T07:16:46.300Z,17.30
2018-06-23T07:19:14.482Z,17.10
2018-06-23T07:21:42.688Z,16.90
2018-06-23T07:24:10.964Z,16.90
2018-06-23T07:26:39.224Z,16.70
2018-06-23T07:31:36.130Z,16.60
2018-06-23T07:34:04.364Z,16.50
2018-06-23T07:36:32.556Z,16.70
2018-06-23T07:39:00.823Z,16.70
2018-06-23T07:41:29.047Z,16.70
2018-06-23T07:43:57.276Z,16.70
2018-06-23T07:46:25.460Z,16.80
2018-06-23T07:48:53.763Z,16.90
2018-06-23T07:51:21.956Z,16.80
2018-06-23T07:53:50.147Z,16.80
2018-06-23T07:58:46.264Z,16.70
2018-06-23T08:01:14.453Z,16.90
2018-06-23T08:03:42.648Z,16.60
2018-06-23T08:06:10.829Z,16.60
2018-06-23T08:08:39.040Z,16.60
2018-06-23T08:11:07.229Z,16.70
2018-06-23T08:13:35.416Z,16.90
2018-06-23T08:16:03.592Z,17.00
2018-06-23T08:18:31.801Z,17.10
2018-06-23T08:23:27.907Z,17.30
2018-06-23T08:25:56.100Z,17.60
2018-06-23T08:28:24.283Z,17.70
2018-06-23T08:30:52.468Z,17.80
2018-06-23T08:35:48.599Z,17.50
2018-06-23T08:38:16.809Z,17.40
2018-06-23T08:40:45.026Z,17.40
2018-06-23T08:43:13.245Z,17.30
2018-06-23T08:45:41.435Z,17.40
2018-06-23T08:48:09.605Z,17.60
2018-06-23T08:50:37.798Z,17.70
2018-06-23T08:53:05.983Z,17.80
2018-06-23T08:55:34.223Z,17.80
2018-06-23T08:58:02.396Z,17.70
2018-06-23T09:00:30.569Z,17.60
2018-06-23T09:02:58.737Z,17.60
2018-06-23T09:05:26.930Z,17.50
2018-06-23T09:07:55.102Z,17.60
2018-06-23T09:10:23.289Z,17.70
2018-06-23T09:12:51.479Z,17.60
2018-06-23T09:15:19.659Z,17.70
2018-06-23T09:17:47.872Z,17.70
2018-06-23T09:20:16.062Z,17.90
2018-06-23T09:22:44.260Z,17.90
2018-06-23T09:25:12.472Z,17.80
2018-06-23T09:27:40.697Z,17.90
2018-06-23T09:30:08.924Z,18.00
2018-06-23T09:32:37.136Z,18.20
2018-06-23T09:35:05.360Z,18.20
2018-06-23T09:37:33.563Z,18.40
2018-06-23T09:40:01.724Z,18.50
2018-06-23T09:42:29.947Z,18.40
2018-06-23T09:44:58.134Z,18.70
2018-06-23T09:47:26.332Z,19.00
2018-06-23T09:49:54.538Z,18.80
2018-06-23T09:52:22.732Z,18.90
2018-06-23T09:54:50.920Z,19.10
2018-06-23T09:57:19.114Z,19.40
2018-06-23T09:59:47.300Z,19.80
2018-06-23T10:02:16.009Z,19.90
2018-06-23T10:07:12.273Z,19.80
2018-06-23T10:09:40.434Z,19.40
2018-06-23T10:12:08.600Z,20.00
2018-06-23T10:14:36.796Z,20.30
2018-06-23T10:17:05.036Z,19.90
2018-06-23T10:19:33.247Z,19.80
2018-06-23T10:22:01.422Z,19.90
2018-06-23T10:24:29.690Z,19.80
2018-06-23T10:26:57.849Z,20.20
2018-06-23T10:29:26.039Z,20.60
2018-06-23T10:31:54.215Z,20.70
2018-06-23T10:34:22.418Z,20.50
2018-06-23T10:36:50.615Z,20.90
2018-06-23T10:39:19.535Z,21.20
2018-06-23T10:41:47.728Z,21.40
2018-06-23T10:44:15.920Z,21.20
2018-06-23T10:46:44.102Z,20.60
2018-06-23T10:49:12.294Z,20.30
2018-06-23T10:51:40.461Z,20.50
2018-06-23T10:54:08.676Z,20.70
2018-06-23T10:56:36.900Z,20.70
2018-06-23T10:59:05.069Z,20.70
2018-06-23T11:01:33.260Z,21.00
2018-06-23T11:04:01.447Z,20.90
2018-06-23T11:06:29.640Z,21.00
2018-06-23T11:08:57.840Z,21.10
2018-06-23T11:11:26.038Z,21.20
2018-06-23T11:13:54.281Z,21.60
2018-06-23T11:16:22.470Z,21.70
2018-06-23T11:18:50.648Z,21.40
2018-06-23T11:21:18.835Z,21.50
2018-06-23T11:23:47.021Z,21.40
2018-06-23T11:26:15.215Z,21.90
2018-06-23T11:28:43.442Z,22.20
2018-06-23T11:31:11.611Z,22.80
2018-06-23T11:33:39.801Z,23.20
2018-06-23T11:36:08.005Z,23.40
2018-06-23T11:38:36.239Z,23.10
2018-06-23T11:41:04.433Z,23.00
2018-06-23T11:43:32.618Z,23.20
2018-06-23T11:46:00.804Z,22.80
2018-06-23T11:48:28.985Z,23.00
2018-06-23T11:53:25.158Z,23.30
2018-06-23T11:55:53.359Z,23.40
2018-06-23T11:58:21.537Z,23.10
2018-06-23T12:00:49.711Z,23.10
2018-06-23T12:03:18.034Z,22.90
2018-06-23T12:08:14.116Z,23.60
2018-06-23T12:10:42.371Z,23.70
2018-06-23T12:13:10.556Z,23.50
2018-06-23T12:15:38.764Z,23.30
2018-06-23T12:18:07.044Z,23.10
2018-06-23T12:20:35.467Z,23.30
2018-06-23T12:23:03.660Z,22.70
2018-06-23T12:25:31.931Z,22.70
2018-06-23T12:28:00.053Z,23.20
2018-06-23T12:30:28.306Z,23.00
2018-06-23T12:34:26.025Z,22.70
2018-06-23T12:36:54.127Z,22.60
2018-06-23T12:39:22.308Z,22.70
2018-06-23T12:41:50.502Z,22.20
2018-06-23T12:44:18.697Z,22.00
2018-06-23T12:46:46.878Z,22.60
2018-06-23T12:51:43.032Z,22.60
2018-06-23T12:54:11.235Z,22.40
2018-06-23T12:56:39.412Z,22.30
2018-06-23T12:59:07.620Z,22.30
2018-06-23T13:01:35.832Z,21.90
2018-06-23T13:04:04.050Z,21.60
2018-06-23T13:06:32.239Z,21.40
2018-06-23T13:09:00.416Z,21.50
2018-06-23T13:11:28.588Z,21.60
2018-06-23T13:13:56.785Z,21.90
2018-06-23T13:18:53.068Z,21.80
2018-06-23T13:21:21.263Z,21.60
2018-06-23T13:23:49.446Z,21.80
2018-06-23T13:26:17.785Z,21.80
2018-06-23T13:28:46.004Z,22.00
2018-06-23T13:31:14.208Z,22.00
2018-06-23T13:36:10.431Z,22.20
2018-06-23T13:38:38.615Z,22.20
2018-06-23T13:41:07.134Z,22.40
2018-06-23T13:43:35.508Z,22.10
2018-06-23T13:46:03.695Z,22.00
2018-06-23T13:48:31.908Z,22.20
2018-06-23T13:51:00.163Z,22.30
2018-06-23T13:53:28.359Z,22.10
2018-06-23T13:55:56.591Z,22.00
2018-06-23T13:58:24.763Z,21.90
2018-06-23T14:00:53.016Z,21.80
2018-06-23T14:03:21.306Z,22.20
2018-06-23T14:05:49.448Z,22.40
2018-06-23T14:10:45.652Z,22.00
2018-06-23T14:13:13.877Z,22.00
2018-06-23T14:15:42.109Z,22.20
2018-06-23T14:18:10.376Z,22.40
2018-06-23T14:20:38.640Z,22.20
2018-06-23T14:23:06.868Z,22.10
2018-06-23T14:28:03.016Z,22.10
2018-06-23T14:32:59.190Z,22.30
2018-06-23T14:35:27.392Z,22.00
2018-06-23T14:37:55.575Z,22.40
2018-06-23T14:40:23.877Z,22.60
2018-06-23T14:45:20.009Z,23.20
2018-06-23T14:47:48.231Z,23.10
2018-06-23T14:50:16.411Z,23.00
2018-06-23T14:52:44.703Z,22.60
2018-06-23T14:55:12.929Z,22.80
2018-06-23T15:00:09.089Z,22.70
2018-06-23T15:02:37.298Z,22.90
2018-06-23T15:05:05.562Z,22.90
2018-06-23T15:10:13.056Z,22.90
2018-06-23T15:12:52.636Z,22.90
2018-06-23T15:15:20.856Z,22.30
2018-06-23T15:17:49.048Z,22.30
2018-06-23T15:20:18.241Z,22.40
2018-06-23T15:22:46.435Z,22.70
2018-06-23T15:25:14.597Z,22.60
2018-06-23T15:27:42.785Z,22.60
2018-06-23T15:30:10.969Z,22.60
2018-06-23T15:32:39.140Z,22.50
2018-06-23T15:35:07.340Z,22.70
2018-06-23T15:37:35.528Z,22.20
2018-06-23T15:42:31.668Z,22.30
2018-06-23T15:47:27.880Z,22.40
2018-06-23T15:49:56.067Z,22.20
2018-06-23T15:52:24.245Z,22.10
2018-06-23T15:54:52.419Z,22.30
2018-06-23T15:57:20.620Z,22.80
2018-06-23T15:59:48.832Z,22.50
2018-06-23T16:02:17.028Z,22.20
2018-06-23T16:04:45.212Z,22.20
2018-06-23T16:07:13.396Z,22.00
2018-06-23T16:12:09.532Z,22.10
2018-06-23T16:14:37.739Z,22.40
2018-06-23T16:17:05.932Z,22.60
2018-06-23T16:19:34.121Z,22.30
2018-06-23T16:22:02.301Z,22.40
2018-06-23T16:24:30.545Z,22.50
2018-06-23T16:26:58.836Z,22.20
2018-06-23T16:29:27.132Z,21.70
2018-06-23T16:31:55.316Z,21.40
2018-06-23T16:34:23.511Z,21.30
2018-06-23T16:39:19.648Z,21.50
2018-06-23T16:44:15.804Z,21.00
2018-06-23T16:49:11.975Z,21.20
2018-06-23T16:51:40.148Z,21.10
2018-06-23T16:54:08.328Z,21.20
2018-06-23T16:56:36.513Z,21.20
2018-06-23T16:59:04.770Z,21.20
2018-06-23T17:01:32.980Z,21.10
2018-06-23T17:04:01.181Z,21.10
2018-06-23T17:08:57.564Z,20.70
2018-06-23T17:11:25.774Z,20.30
2018-06-23T17:13:53.951Z,20.30
2018-06-23T17:16:22.150Z,20.30
2018-06-23T17:18:50.331Z,20.20
2018-06-23T17:23:47.057Z,20.40
2018-06-23T17:26:15.268Z,20.30
2018-06-23T17:28:43.573Z,20.10
2018-06-23T17:31:11.876Z,19.90
2018-06-23T17:36:07.936Z,20.00
2018-06-23T17:38:36.170Z,19.80
2018-06-23T17:41:04.356Z,20.00
2018-06-23T17:43:32.551Z,19.90
2018-06-23T17:46:00.740Z,19.70
2018-06-23T17:48:28.920Z,19.50
2018-06-23T17:53:25.081Z,19.70
2018-06-23T17:55:53.296Z,19.70
2018-06-23T17:58:21.933Z,19.50
2018-06-23T18:00:50.134Z,19.30
2018-06-23T18:03:18.390Z,19.20
2018-06-23T18:05:46.614Z,19.10
2018-06-23T18:08:14.816Z,19.10
2018-06-23T18:10:43.129Z,19.20
2018-06-23T18:13:11.304Z,19.10
2018-06-23T18:15:39.501Z,19.10
2018-06-23T18:18:07.676Z,19.00
2018-06-23T18:20:35.864Z,18.90
2018-06-23T18:23:04.051Z,18.80
2018-06-23T18:25:32.374Z,18.70
2018-06-23T18:28:00.476Z,18.60
2018-06-23T18:30:28.741Z,18.40
2018-06-23T18:32:56.919Z,18.50
2018-06-23T18:35:25.133Z,18.10
2018-06-23T18:37:53.356Z,18.20
2018-06-23T18:40:21.544Z,18.30
2018-06-23T18:42:49.748Z,18.20
2018-06-23T18:45:17.952Z,18.10
2018-06-23T18:47:46.142Z,18.00
2018-06-23T18:50:14.344Z,18.10
2018-06-23T18:52:42.538Z,17.90
2018-06-23T18:55:10.750Z,17.80
2018-06-23T18:57:38.908Z,17.70
2018-06-23T19:00:08.005Z,17.60
2018-06-23T19:02:36.207Z,17.50
2018-06-23T19:05:04.430Z,17.40
2018-06-23T19:07:32.618Z,17.30
2018-06-23T19:12:29.592Z,17.40
2018-06-23T19:17:25.708Z,17.20
2018-06-23T19:19:53.900Z,17.20
2018-06-23T19:24:50.096Z,16.90
2018-06-23T19:27:19.253Z,16.90
2018-06-23T19:29:47.444Z,16.80
2018-06-23T19:32:15.632Z,16.70
2018-06-23T19:34:43.819Z,16.70
2018-06-23T19:37:12.001Z,16.60
2018-06-23T19:39:40.199Z,16.50
2018-06-23T19:44:36.336Z,16.50
2018-06-23T19:47:04.523Z,16.50
2018-06-23T19:52:00.631Z,16.40
2018-06-23T19:54:28.827Z,16.20
2018-06-23T19:56:57.050Z,16.10
2018-06-23T19:59:25.220Z,16.20
2018-06-23T20:01:53.463Z,16.20
2018-06-23T20:05:24.986Z,16.10
2018-06-23T20:07:53.192Z,16.00
2018-06-23T20:10:21.389Z,16.00
2018-06-23T20:12:49.556Z,15.80
2018-06-23T20:15:17.743Z,15.80
2018-06-23T20:17:45.945Z,15.80
2018-06-23T20:20:14.137Z,15.80
2018-06-23T20:22:42.300Z,15.80
2018-06-23T20:25:10.488Z,15.70
2018-06-23T20:27:38.668Z,15.70
2018-06-23T20:30:06.864Z,15.60
2018-06-23T20:32:35.048Z,15.50
2018-06-23T20:35:03.280Z,15.50
2018-06-23T20:37:31.468Z,15.50
2018-06-23T20:39:59.652Z,15.50
2018-06-23T20:44:55.781Z,15.30
2018-06-23T20:47:23.978Z,15.30
2018-06-23T20:49:52.172Z,15.30
2018-06-23T20:52:20.377Z,15.30
2018-06-23T20:54:48.562Z,15.30
2018-06-23T20:57:16.772Z,15.30
2018-06-23T20:59:45.000Z,15.20
2018-06-23T21:02:13.188Z,15.30
2018-06-23T21:04:41.396Z,15.20
2018-06-23T21:07:09.596Z,15.10
2018-06-23T21:09:37.787Z,15.20
2018-06-23T21:12:05.987Z,15.10
2018-06-23T21:14:34.196Z,15.10
2018-06-23T21:17:02.411Z,15.10
2018-06-23T21:19:30.612Z,14.90
2018-06-23T21:21:58.824Z,14.90
2018-06-23T21:24:27.036Z,14.90
2018-06-23T21:26:55.226Z,15.00
2018-06-23T21:29:23.474Z,15.00
2018-06-23T21:31:51.677Z,15.00
2018-06-23T21:34:19.865Z,14.90
2018-06-23T21:36:48.057Z,15.00
2018-06-23T21:39:16.250Z,15.00
2018-06-23T21:41:44.460Z,14.90
2018-06-23T21:44:12.712Z,14.90
2018-06-23T21:46:40.879Z,14.90
2018-06-23T21:49:09.051Z,14.80
2018-06-23T21:51:37.251Z,14.70
2018-06-23T21:54:05.484Z,14.70
2018-06-23T21:56:33.667Z,14.60
2018-06-23T21:59:01.856Z,14.50
2018-06-23T22:01:30.049Z,14.50
2018-06-23T22:03:58.235Z,14.50
2018-06-23T22:06:26.414Z,14.40
2018-06-23T22:08:54.608Z,14.40
2018-06-23T22:11:22.784Z,14.40
2018-06-23T22:13:51.003Z,14.40
2018-06-23T22:16:19.167Z,14.40
2018-06-23T22:18:47.367Z,14.40
2018-06-23T22:21:15.536Z,14.40
2018-06-23T22:23:43.731Z,14.30
2018-06-23T22:26:11.916Z,14.20
2018-06-23T22:28:46.901Z,14.20
2018-06-23T22:31:15.096Z,14.20
2018-06-23T22:33:43.292Z,14.20
2018-06-23T22:36:11.480Z,14.20
2018-06-23T22:41:07.622Z,14.10
2018-06-23T22:43:36.304Z,14.10
2018-06-23T22:48:32.507Z,14.00
2018-06-23T22:51:00.720Z,14.00
2018-06-23T22:55:56.864Z,13.90
2018-06-23T23:00:52.993Z,13.90
2018-06-23T23:03:21.191Z,13.80
2018-06-23T23:05:49.401Z,13.80
2018-06-23T23:08:18.603Z,13.70
2018-06-23T23:10:46.771Z,13.70
2018-06-23T23:13:14.980Z,13.70
2018-06-23T23:15:43.162Z,13.60
2018-06-23T23:18:11.412Z,13.60
2018-06-23T23:20:39.535Z,13.60
2018-06-23T23:23:07.734Z,13.50
2018-06-23T23:25:35.905Z,13.50
2018-06-23T23:28:04.103Z,13.50
2018-06-23T23:30:32.297Z,13.50
2018-06-23T23:33:00.488Z,13.60
2018-06-23T23:37:56.619Z,13.60
2018-06-23T23:40:24.803Z,13.50
2018-06-23T23:45:20.949Z,13.50
2018-06-23T23:50:17.711Z,13.40
2018-06-23T23:52:45.967Z,13.40
2018-06-23T23:55:14.135Z,13.40
2018-06-23T23:57:42.403Z,13.30
